Fort Lowell, Arizona
Current Conditions -  °F | °C
As of 8:58 AM on Thursday 23 Oct 2014 (Local Time) from KDMA Reporting Station
Clear Clear  
Wind Chill: 72°   Ceiling: Unl
Heat Index: 72°   Visibility: 10mi
Dew Point: 49°   Wind: 7mph
Humidity: 45%   Direction: 160°SSE
Pressure: 30.11"   Gusts: NA
Location:  32.3323°N, 110.678°W
Report Text: KDMA 231558Z AUTO 16006KT 10SM CLR 22/09 A3011 RMK AO2 SLP162 T02200094 $
Loading
Personal Weather Stations






























Interactive Weather Map
Tropical Storm Tracking
New forecast layout! Learn more

10-Day Weather Forecast

Advertisements
Track Severe Weather on mobile